Time;durP1;ratioP1;P1;durP2;ratioP2;P2;SDS_P1;SDS_P2;PMS_P1;PMS_P2;Temp;Humidity;BMP_temperature;BMP_pressure;BME280_temperature;BME280_humidity;BME280_pressure;Samples;Min_cycle;Max_cycle;Signal;HPM_P1;HPM_P2
2021/08/03 00:00:08;;;;;;;4.22;1.45;;;17.60;99.90;;;;;;4222171;28;20068;-60
2021/08/03 00:02:09;;;;;;;2.10;1.50;;;17.60;99.90;;;;;;4221658;28;20035;-60
2021/08/03 00:04:16;;;;;;;4.97;1.38;;;17.60;99.90;;;;;;4222474;28;20028;-59
2021/08/03 00:06:19;;;;;;;3.50;1.58;;;17.50;99.90;;;;;;4221514;28;20195;-60
2021/08/03 00:08:28;;;;;;;2.35;1.42;;;17.50;99.90;;;;;;4222605;28;20035;-60
2021/08/03 00:10:30;;;;;;;5.05;2.10;;;17.50;99.90;;;;;;4221643;28;20094;-58
2021/08/03 00:12:31;;;;;;;8.23;2.22;;;17.40;99.90;;;;;;4223999;28;20088;-60
2021/08/03 00:14:33;;;;;;;5.10;1.92;;;17.40;99.90;;;;;;4221813;28;20112;-59
2021/08/03 00:16:37;;;;;;;2.63;1.50;;;17.40;99.90;;;;;;4222772;28;20027;-59
2021/08/03 00:18:40;;;;;;;1.88;1.40;;;17.30;99.90;;;;;;4222070;28;20448;-60
2021/08/03 00:20:41;;;;;;;5.97;2.10;;;17.30;99.90;;;;;;4222309;28;20051;-60
2021/08/03 00:22:43;;;;;;;4.80;1.70;;;17.20;99.90;;;;;;4221978;28;20544;-59
2021/08/03 00:24:47;;;;;;;6.63;1.98;;;17.20;99.90;;;;;;4222377;28;20031;-60
2021/08/03 00:26:50;;;;;;;4.90;1.45;;;17.20;99.90;;;;;;4221760;28;20055;-60
2021/08/03 00:28:51;;;;;;;3.13;2.05;;;17.20;99.90;;;;;;4221861;28;20032;-59
2021/08/03 00:30:52;;;;;;;2.17;1.75;;;17.20;99.90;;;;;;4222062;28;20047;-59
2021/08/03 00:32:54;;;;;;;3.38;1.55;;;17.20;99.90;;;;;;4221961;28;20093;-58
2021/08/03 00:34:55;;;;;;;3.80;1.70;;;17.20;99.90;;;;;;4220937;28;20035;-60
2021/08/03 00:36:57;;;;;;;3.35;1.73;;;17.10;99.90;;;;;;4221345;28;20487;-58
2021/08/03 00:38:58;;;;;;;4.07;1.80;;;17.10;99.90;;;;;;4221789;28;20068;-60
2021/08/03 00:41:02;;;;;;;4.13;1.60;;;17.10;99.90;;;;;;4221735;28;20081;-60
2021/08/03 00:43:03;;;;;;;6.88;1.60;;;17.00;99.90;;;;;;4220563;28;20053;-59
2021/08/03 00:45:05;;;;;;;7.35;1.77;;;17.00;99.90;;;;;;4221867;28;20031;-60
2021/08/03 00:47:07;;;;;;;3.97;1.65;;;16.90;99.90;;;;;;4222606;28;20028;-57
2021/08/03 00:49:08;;;;;;;5.22;1.80;;;16.90;99.90;;;;;;4221542;28;20031;-59
2021/08/03 00:51:09;;;;;;;2.80;1.60;;;16.90;99.90;;;;;;4222474;28;20035;-60
2021/08/03 00:53:10;;;;;;;3.45;1.65;;;16.90;99.90;;;;;;4221600;28;20113;-60
2021/08/03 00:55:12;;;;;;;4.60;2.20;;;16.80;99.90;;;;;;4221590;28;20136;-60
2021/08/03 00:57:14;;;;;;;1.63;1.40;;;16.80;99.90;;;;;;4221762;28;20035;-59
2021/08/03 00:59:15;;;;;;;3.28;1.63;;;16.80;99.90;;;;;;4224102;28;20043;-59
2021/08/03 01:01:16;;;;;;;4.15;1.67;;;16.80;99.90;;;;;;4238989;27;20043;-59
2021/08/03 01:03:17;;;;;;;5.63;1.73;;;16.80;99.90;;;;;;4241978;27;20103;-60
2021/08/03 01:05:19;;;;;;;3.40;1.80;;;16.80;99.90;;;;;;4242304;27;20039;-60
2021/08/03 01:07:46;;;;;;;2.08;1.67;;;16.80;99.90;;;;;;4241610;27;20096;-59
2021/08/03 01:10:06;;;;;;;5.55;1.73;;;16.80;99.90;;;;;;4207819;28;20101;-59
2021/08/03 01:12:21;;;;;;;4.60;1.65;;;16.70;99.90;;;;;;4216049;27;20027;-60
2021/08/03 01:14:33;;;;;;;3.50;1.80;;;16.70;99.90;;;;;;4224751;28;20089;-60
2021/08/03 01:17:08;;;;;;;5.75;1.75;;;16.70;99.90;;;;;;4224836;28;20028;-59
2021/08/03 01:19:47;;;;;;;4.10;1.88;;;16.70;99.90;;;;;;4223676;28;20100;-60
2021/08/03 01:21:49;;;;;;;4.65;1.52;;;16.60;99.90;;;;;;4212398;28;20072;-59
2021/08/03 01:24:12;;;;;;;3.03;1.58;;;16.50;99.90;;;;;;4224425;28;20501;-59
2021/08/03 01:26:44;;;;;;;4.05;1.80;;;16.40;99.90;;;;;;4225040;28;20132;-59
2021/08/03 01:28:47;;;;;;;7.55;2.10;;;16.40;99.90;;;;;;4225371;27;20580;-60
2021/08/03 01:31:01;;;;;;;3.60;1.85;;;16.40;99.90;;;;;;4225122;28;20077;-60
2021/08/03 01:33:05;;;;;;;2.63;1.70;;;16.40;99.90;;;;;;4224557;28;20069;-60
2021/08/03 01:35:07;;;;;;;4.68;1.70;;;16.30;99.90;;;;;;4225169;27;20052;-60
2021/08/03 01:37:10;;;;;;;4.63;1.98;;;16.40;99.90;;;;;;4226549;27;20088;-59
2021/08/03 01:39:14;;;;;;;3.50;1.88;;;16.40;99.90;;;;;;4241667;27;20433;-59
2021/08/03 01:41:17;;;;;;;3.40;1.60;;;16.40;99.90;;;;;;4239862;27;20043;-58
2021/08/03 01:43:19;;;;;;;3.53;1.63;;;16.40;99.90;;;;;;4241797;27;20023;-60
2021/08/03 01:45:23;;;;;;;3.03;1.90;;;16.40;99.90;;;;;;4240825;27;20084;-59
2021/08/03 01:47:25;;;;;;;3.10;1.63;;;16.40;99.90;;;;;;4237170;27;20088;-59
2021/08/03 01:49:27;;;;;;;3.97;1.90;;;16.40;99.90;;;;;;4223675;28;20070;-59
2021/08/03 01:51:31;;;;;;;3.25;1.90;;;16.40;99.90;;;;;;4224844;28;20092;-59
2021/08/03 01:53:33;;;;;;;4.82;1.77;;;16.40;99.90;;;;;;4223472;28;20085;-59
2021/08/03 01:55:35;;;;;;;2.45;1.60;;;16.40;99.90;;;;;;4224585;28;20069;-60
2021/08/03 01:57:41;;;;;;;2.15;1.90;;;16.40;99.90;;;;;;4224661;28;20089;-59
2021/08/03 01:59:46;;;;;;;2.47;1.98;;;16.40;99.90;;;;;;4223887;28;20073;-59
2021/08/03 02:01:48;;;;;;;4.55;2.13;;;16.40;99.90;;;;;;4237649;27;20039;-60
2021/08/03 02:03:50;;;;;;;3.03;1.90;;;16.40;99.90;;;;;;4240957;27;20043;-57
2021/08/03 02:05:54;;;;;;;2.45;1.48;;;16.30;99.90;;;;;;4240775;27;20436;-60
2021/08/03 02:07:55;;;;;;;3.28;1.77;;;16.30;99.90;;;;;;4240515;27;20087;-59
2021/08/03 02:09:58;;;;;;;2.95;1.80;;;16.20;99.90;;;;;;4239876;27;20047;-58
2021/08/03 02:11:59;;;;;;;4.28;2.03;;;16.20;99.90;;;;;;4239929;27;20505;-60
2021/08/03 02:14:00;;;;;;;3.58;1.77;;;16.10;99.90;;;;;;4240640;27;20096;-59
2021/08/03 02:16:02;;;;;;;4.22;1.67;;;16.20;99.90;;;;;;4240139;27;20498;-58
2021/08/03 02:18:03;;;;;;;2.65;1.90;;;16.20;99.90;;;;;;4240590;27;20043;-56
2021/08/03 02:20:06;;;;;;;8.35;2.42;;;16.20;99.90;;;;;;4240427;27;20019;-59
2021/08/03 02:22:07;;;;;;;5.00;1.83;;;16.10;99.90;;;;;;4240458;27;20080;-60
2021/08/03 02:24:09;;;;;;;4.13;1.77;;;16.10;99.90;;;;;;4239811;27;20027;-59
2021/08/03 02:26:11;;;;;;;3.38;1.27;;;16.20;99.90;;;;;;4240638;27;20499;-58
2021/08/03 02:28:12;;;;;;;5.32;1.40;;;16.20;99.90;;;;;;4237650;27;20517;-59
2021/08/03 02:30:14;;;;;;;2.33;1.27;;;16.20;99.90;;;;;;4223440;28;20031;-59
2021/08/03 02:32:20;;;;;;;4.07;1.52;;;16.20;99.90;;;;;;4223511;28;20028;-60
2021/08/03 02:34:29;;;;;;;4.70;1.90;;;16.20;99.90;;;;;;4223588;28;20430;-59
2021/08/03 02:36:38;;;;;;;3.90;1.95;;;16.10;99.90;;;;;;4227099;27;20052;-60
2021/08/03 02:38:43;;;;;;;8.35;1.67;;;16.10;99.90;;;;;;4223287;28;20027;-59
2021/08/03 02:40:45;;;;;;;5.45;1.77;;;16.10;99.90;;;;;;4223553;28;20031;-61
2021/08/03 02:42:48;;;;;;;3.00;1.65;;;16.10;99.90;;;;;;4223257;28;20093;-59
2021/08/03 02:44:54;;;;;;;1.83;1.45;;;16.10;99.90;;;;;;4223238;28;20036;-59
2021/08/03 02:46:57;;;;;;;4.10;1.95;;;16.10;99.90;;;;;;4223036;28;20571;-59
2021/08/03 02:49:01;;;;;;;3.40;2.38;;;16.10;99.90;;;;;;4223286;28;20032;-59
2021/08/03 02:51:03;;;;;;;3.47;1.77;;;16.00;99.90;;;;;;4229163;27;20497;-60
2021/08/03 02:53:15;;;;;;;3.35;1.95;;;16.10;99.90;;;;;;4239639;27;20031;-59
2021/08/03 02:55:28;;;;;;;5.10;1.73;;;16.00;99.90;;;;;;4239741;27;20047;-59
2021/08/03 02:57:30;;;;;;;4.18;2.08;;;16.00;99.90;;;;;;4224774;27;20100;-60
2021/08/03 02:59:36;;;;;;;3.40;1.42;;;16.00;99.90;;;;;;4222819;28;20035;-60
2021/08/03 03:01:40;;;;;;;2.80;2.00;;;16.10;99.90;;;;;;4223184;28;20031;-60
2021/08/03 03:03:52;;;;;;;4.72;2.22;;;16.10;99.90;;;;;;4222213;28;20072;-59
2021/08/03 03:06:05;;;;;;;4.75;1.70;;;16.10;99.90;;;;;;4223491;28;20052;-59
2021/08/03 03:08:09;;;;;;;6.28;1.80;;;16.10;99.90;;;;;;4222638;28;20035;-59
2021/08/03 03:10:16;;;;;;;4.30;1.63;;;16.20;99.90;;;;;;4222686;28;20080;-60
2021/08/03 03:12:18;;;;;;;2.08;1.67;;;16.10;99.90;;;;;;4222759;28;20120;-58
2021/08/03 03:14:22;;;;;;;4.20;1.90;;;16.20;99.90;;;;;;4223464;28;20084;-59
2021/08/03 03:16:24;;;;;;;3.88;1.63;;;16.30;99.90;;;;;;4222807;28;20877;-60
2021/08/03 03:18:26;;;;;;;4.10;1.58;;;16.50;99.90;;;;;;4223158;27;20039;-59
2021/08/03 03:20:29;;;;;;;2.80;1.45;;;16.70;99.90;;;;;;4221955;28;20794;-59
2021/08/03 03:22:34;;;;;;;2.13;1.38;;;16.80;99.90;;;;;;4222382;28;20066;-58
2021/08/03 03:24:37;;;;;;;5.32;1.85;;;17.00;99.90;;;;;;4230206;27;20027;-59
2021/08/03 03:26:40;;;;;;;1.70;1.42;;;17.20;99.90;;;;;;4239689;27;20039;-59
2021/08/03 03:28:43;;;;;;;3.25;1.55;;;17.50;99.90;;;;;;4239001;27;20416;-60
2021/08/03 03:30:45;;;;;;;8.82;1.75;;;17.70;99.90;;;;;;4239929;27;20060;-59
2021/08/03 03:32:48;;;;;;;9.18;1.95;;;17.80;99.90;;;;;;4239398;27;20027;-59
2021/08/03 03:34:49;;;;;;;6.60;1.80;;;18.00;99.90;;;;;;4239062;27;20095;-59
2021/08/03 03:36:52;;;;;;;3.95;1.90;;;18.20;99.90;;;;;;4238307;27;20080;-59
2021/08/03 03:38:56;;;;;;;3.42;1.65;;;18.30;99.90;;;;;;4238738;27;20901;-59
2021/08/03 03:40:58;;;;;;;4.13;2.05;;;18.40;99.90;;;;;;4239581;27;20064;-59
2021/08/03 03:42:59;;;;;;;3.30;1.80;;;18.60;99.90;;;;;;4239511;27;20364;-59
2021/08/03 03:45:04;;;;;;;5.45;1.42;;;18.80;99.90;;;;;;4239415;27;20023;-59
2021/08/03 03:47:16;;;;;;;5.90;1.92;;;18.90;99.90;;;;;;4237644;27;20466;-59
2021/08/03 03:49:23;;;;;;;2.03;1.60;;;19.20;99.90;;;;;;4222626;28;20035;-60
2021/08/03 03:51:29;;;;;;;3.65;1.58;;;19.60;99.90;;;;;;4222105;28;20085;-58
2021/08/03 03:53:42;;;;;;;5.22;1.35;;;20.00;99.90;;;;;;4222612;28;20056;-59
2021/08/03 03:55:53;;;;;;;4.88;1.15;;;20.40;99.90;;;;;;4221886;28;20032;-59
2021/08/03 03:57:54;;;;;;;1.55;1.30;;;20.70;99.90;;;;;;4222197;28;20084;-60
2021/08/03 03:59:58;;;;;;;2.83;1.23;;;21.00;99.90;;;;;;4222231;28;20044;-60
2021/08/03 04:02:03;;;;;;;2.50;1.63;;;21.30;99.90;;;;;;4222009;28;20077;-59
2021/08/03 04:04:07;;;;;;;2.50;1.35;;;21.60;99.90;;;;;;4228933;28;20111;-59
2021/08/03 04:06:10;;;;;;;2.28;1.63;;;21.90;99.90;;;;;;4239255;27;20088;-58
2021/08/03 04:08:11;;;;;;;3.08;1.45;;;22.10;99.90;;;;;;4238443;28;20088;-59
2021/08/03 04:10:12;;;;;;;10.73;1.73;;;22.30;99.90;;;;;;4239300;28;20023;-60
2021/08/03 04:12:14;;;;;;;3.03;1.65;;;22.50;99.90;;;;;;4237882;27;20047;-59
2021/08/03 04:14:22;;;;;;;4.18;1.50;;;22.50;99.90;;;;;;4239078;27;20524;-60
2021/08/03 04:16:23;;;;;;;4.43;1.35;;;22.60;99.90;;;;;;4237016;28;20110;-59
2021/08/03 04:18:25;;;;;;;3.88;1.25;;;22.80;99.90;;;;;;4239282;28;20464;-61
2021/08/03 04:20:26;;;;;;;2.75;1.50;;;23.00;99.90;;;;;;4238066;27;20217;-59
2021/08/03 04:22:28;;;;;;;6.05;1.55;;;23.30;99.90;;;;;;4238484;27;20084;-59
2021/08/03 04:24:30;;;;;;;3.05;1.30;;;23.70;99.90;;;;;;4237913;27;20092;-60
2021/08/03 04:26:32;;;;;;;2.85;1.38;;;24.10;99.90;;;;;;4239116;28;20080;-60
2021/08/03 04:28:33;;;;;;;2.30;1.10;;;24.30;99.90;;;;;;4238402;27;20047;-60
2021/08/03 04:30:34;;;;;;;3.75;1.88;;;24.20;99.90;;;;;;4238257;28;20031;-59
2021/08/03 04:32:35;;;;;;;5.38;1.48;;;24.50;99.90;;;;;;4238630;28;20072;-59
2021/08/03 04:34:36;;;;;;;4.00;1.42;;;24.80;99.90;;;;;;4238426;27;20442;-59
2021/08/03 04:36:37;;;;;;;2.60;0.98;;;25.00;99.80;;;;;;4223370;27;20039;-59
2021/08/03 04:38:39;;;;;;;4.30;1.83;;;25.20;99.30;;;;;;4228487;27;20042;-60
2021/08/03 04:40:40;;;;;;;3.65;1.55;;;25.40;98.90;;;;;;4240297;27;20039;-60
2021/08/03 04:42:41;;;;;;;3.40;1.17;;;25.70;98.60;;;;;;4240386;27;20057;-59
2021/08/03 04:44:42;;;;;;;5.32;1.20;;;25.90;98.00;;;;;;4242306;27;20068;-59
2021/08/03 04:46:43;;;;;;;3.58;1.30;;;26.30;97.50;;;;;;4236230;27;20191;-59
2021/08/03 04:48:45;;;;;;;4.57;1.13;;;26.70;97.00;;;;;;4240601;27;20039;-60
2021/08/03 04:50:46;;;;;;;2.35;1.05;;;27.00;96.20;;;;;;4239140;27;20027;-59
2021/08/03 04:52:47;;;;;;;9.73;1.08;;;27.20;95.70;;;;;;4224919;28;20043;-60
2021/08/03 04:54:48;;;;;;;1.80;1.00;;;27.30;95.40;;;;;;4238378;27;20043;-59
2021/08/03 04:56:49;;;;;;;4.75;1.25;;;27.40;94.70;;;;;;4242337;27;20084;-60
2021/08/03 04:58:50;;;;;;;3.58;1.00;;;27.60;94.20;;;;;;4237309;27;20031;-59
2021/08/03 05:00:52;;;;;;;2.40;1.02;;;27.60;93.90;;;;;;4238023;27;20039;-59
2021/08/03 05:02:53;;;;;;;4.00;0.90;;;27.70;93.50;;;;;;4241970;27;20436;-60
2021/08/03 05:04:54;;;;;;;2.88;1.02;;;28.00;93.00;;;;;;4240498;27;20084;-59
2021/08/03 05:06:55;;;;;;;6.15;0.93;;;28.30;92.40;;;;;;4241442;27;20479;-59
2021/08/03 05:08:56;;;;;;;5.13;1.38;;;28.70;91.80;;;;;;4238959;27;20472;-59
2021/08/03 05:10:57;;;;;;;3.15;0.90;;;28.80;91.00;;;;;;4241526;27;20068;-60
2021/08/03 05:12:59;;;;;;;6.53;1.00;;;28.90;90.40;;;;;;4239374;27;20084;-59
2021/08/03 05:15:00;;;;;;;3.28;0.80;;;29.10;90.10;;;;;;4240415;27;20027;-59
2021/08/03 05:17:01;;;;;;;6.15;1.30;;;29.30;88.90;;;;;;4240551;27;20095;-60
2021/08/03 05:19:03;;;;;;;3.83;1.15;;;29.50;87.90;;;;;;4241447;27;20092;-59
2021/08/03 05:21:04;;;;;;;1.90;0.93;;;29.00;86.50;;;;;;4241142;27;20023;-60
2021/08/03 05:23:05;;;;;;;3.67;0.98;;;29.00;87.20;;;;;;4241784;27;20435;-61
2021/08/03 05:25:07;;;;;;;2.92;0.50;;;29.20;86.50;;;;;;4241369;27;20023;-61
2021/08/03 05:27:08;;;;;;;3.80;0.90;;;29.20;85.60;;;;;;4241178;27;20039;-60
2021/08/03 05:29:09;;;;;;;2.13;0.70;;;29.40;84.80;;;;;;4240704;27;20043;-60
2021/08/03 05:31:10;;;;;;;7.35;0.95;;;29.60;83.90;;;;;;4239310;27;20035;-61
2021/08/03 05:33:11;;;;;;;5.93;0.95;;;29.90;83.20;;;;;;4241181;27;20432;-60
2021/08/03 05:35:12;;;;;;;8.15;1.20;;;30.10;82.30;;;;;;4240790;27;20462;-60
2021/08/03 05:37:13;;;;;;;3.25;0.77;;;30.30;81.30;;;;;;4238943;27;20085;-60
2021/08/03 05:39:15;;;;;;;3.67;1.38;;;30.40;80.80;;;;;;4239665;27;20043;-60
2021/08/03 05:41:16;;;;;;;2.72;1.00;;;30.30;80.30;;;;;;4240861;27;20076;-60
2021/08/03 05:43:17;;;;;;;4.10;1.00;;;30.40;80.00;;;;;;4238625;27;20108;-60
2021/08/03 05:45:18;;;;;;;2.78;0.85;;;30.40;79.70;;;;;;4240530;27;20031;-59
2021/08/03 05:47:19;;;;;;;3.58;0.90;;;30.30;79.60;;;;;;4240438;27;20043;-60
2021/08/03 05:49:21;;;;;;;3.30;0.93;;;30.40;79.30;;;;;;4241333;27;20039;-60
2021/08/03 05:51:22;;;;;;;2.85;0.90;;;30.60;79.20;;;;;;4240202;27;20080;-60
2021/08/03 05:53:25;;;;;;;2.17;1.00;;;30.90;78.70;;;;;;4240286;27;20059;-60
2021/08/03 05:55:26;;;;;;;2.50;0.85;;;31.20;78.00;;;;;;4240871;27;20103;-60
2021/08/03 05:57:30;;;;;;;2.63;0.93;;;30.90;77.40;;;;;;4241148;27;20405;-59
2021/08/03 05:59:31;;;;;;;6.43;1.05;;;30.50;77.50;;;;;;4238313;27;20630;-60
2021/08/03 06:01:32;;;;;;;4.75;0.70;;;30.00;78.00;;;;;;4234385;27;20043;-60
2021/08/03 06:03:33;;;;;;;4.45;1.00;;;29.80;78.40;;;;;;4240677;27;20340;-60
2021/08/03 06:05:35;;;;;;;2.92;0.80;;;29.60;78.40;;;;;;4225961;27;20093;-60
2021/08/03 06:07:41;;;;;;;3.65;0.90;;;29.90;78.30;;;;;;4237806;27;20027;-59
2021/08/03 06:09:43;;;;;;;3.15;1.20;;;30.30;77.80;;;;;;4223632;27;20512;-60
2021/08/03 06:11:46;;;;;;;4.07;1.42;;;30.70;77.40;;;;;;4224036;28;20040;-59
2021/08/03 06:13:49;;;;;;;3.33;1.17;;;31.10;76.60;;;;;;4222765;28;20497;-59
2021/08/03 06:15:51;;;;;;;4.78;1.13;;;31.50;76.20;;;;;;4224249;27;20050;-60
2021/08/03 06:18:07;;;;;;;2.63;0.90;;;31.50;75.30;;;;;;4222465;28;20520;-60
2021/08/03 06:20:09;;;;;;;1.58;0.80;;;31.10;73.90;;;;;;4223727;28;20024;-60
2021/08/03 06:22:13;;;;;;;4.10;1.00;;;30.80;75.70;;;;;;4222704;28;20043;-60
2021/08/03 06:24:16;;;;;;;1.95;0.80;;;30.60;75.80;;;;;;4223953;28;20073;-61
2021/08/03 06:26:20;;;;;;;2.80;1.05;;;30.70;76.20;;;;;;4225397;27;20448;-60
2021/08/03 06:28:22;;;;;;;2.95;0.90;;;30.80;75.60;;;;;;4239853;27;20059;-60
2021/08/03 06:30:26;;;;;;;7.55;0.95;;;30.90;75.50;;;;;;4239199;27;20465;-61
2021/08/03 06:32:27;;;;;;;2.92;1.05;;;30.70;75.30;;;;;;4240334;27;20433;-60
2021/08/03 06:34:28;;;;;;;1.65;1.10;;;30.50;75.60;;;;;;4226721;27;20035;-60
2021/08/03 06:36:30;;;;;;;2.30;0.70;;;30.30;75.70;;;;;;4223161;28;20085;-60
2021/08/03 06:38:31;;;;;;;1.13;0.90;;;30.00;76.00;;;;;;4223215;28;20076;-60
2021/08/03 06:40:32;;;;;;;2.95;1.00;;;29.90;76.00;;;;;;4201534;28;20859;-61
2021/08/03 06:42:40;;;;;;;1.20;0.68;;;29.60;76.50;;;;;;4221712;28;20051;-61
2021/08/03 06:44:50;;;;;;;4.97;1.00;;;29.40;76.50;;;;;;4221230;28;20100;-61
2021/08/03 06:46:55;;;;;;;5.57;0.90;;;29.50;76.30;;;;;;4222138;28;20051;-62
2021/08/03 06:49:02;;;;;;;1.90;0.82;;;29.80;76.10;;;;;;4220693;28;20056;-60
2021/08/03 06:51:14;;;;;;;7.75;1.20;;;29.80;75.60;;;;;;4209058;28;20492;-60
2021/08/03 06:53:16;;;;;;;2.47;1.00;;;29.80;74.50;;;;;;4227058;27;20107;-59
2021/08/03 06:55:23;;;;;;;2.38;0.85;;;29.70;75.40;;;;;;4222140;27;20170;-60
2021/08/03 06:57:26;;;;;;;4.82;0.90;;;29.70;75.30;;;;;;4221020;28;20028;-60
2021/08/03 06:59:32;;;;;;;4.07;0.82;;;29.60;75.30;;;;;;4221102;28;20101;-59
2021/08/03 07:01:34;;;;;;;3.55;0.77;;;29.50;75.60;;;;;;4227784;27;20043;-61
2021/08/03 07:03:45;;;;;;;5.45;1.20;;;29.50;75.50;;;;;;4236378;27;20534;-60
2021/08/03 07:05:53;;;;;;;2.88;0.80;;;29.30;74.80;;;;;;4237616;27;20039;-61
2021/08/03 07:07:58;;;;;;;4.22;1.02;;;29.50;75.30;;;;;;4238765;27;20084;-60
2021/08/03 07:10:02;;;;;;;3.22;0.93;;;29.40;74.90;;;;;;4237280;27;20061;-60
2021/08/03 07:12:04;;;;;;;2.75;1.40;;;29.10;75.10;;;;;;4237429;27;20452;-61
2021/08/03 07:14:06;;;;;;;3.78;1.33;;;28.60;75.80;;;;;;4237242;27;20854;-59
2021/08/03 07:16:07;;;;;;;4.32;1.20;;;28.10;77.00;;;;;;4235569;27;20035;-59
2021/08/03 07:18:10;;;;;;;5.75;1.95;;;28.20;77.30;;;;;;4220536;28;20031;-60
2021/08/03 07:20:11;;;;;;;4.00;1.17;;;28.40;77.40;;;;;;4220843;27;20043;-60
2021/08/03 07:22:16;;;;;;;6.82;1.75;;;28.70;77.10;;;;;;4220397;28;20093;-60
2021/08/03 07:24:18;;;;;;;7.88;1.00;;;29.10;76.60;;;;;;4224020;27;20080;-62
2021/08/03 07:26:19;;;;;;;2.55;0.90;;;29.40;75.90;;;;;;4226261;27;20044;-61
2021/08/03 07:28:20;;;;;;;1.98;1.10;;;29.20;75.80;;;;;;4221306;27;20055;-60
2021/08/03 07:30:23;;;;;;;1.52;0.90;;;29.10;76.30;;;;;;4221277;28;20116;-59
2021/08/03 07:32:24;;;;;;;3.40;0.82;;;29.20;76.90;;;;;;4221053;28;20084;-60
2021/08/03 07:34:25;;;;;;;3.33;1.30;;;29.30;77.00;;;;;;4227050;27;20088;-60
2021/08/03 07:36:26;;;;;;;3.63;1.00;;;28.40;76.60;;;;;;4225099;27;20856;-60
2021/08/03 07:38:28;;;;;;;6.95;1.35;;;27.90;77.10;;;;;;4220660;28;20036;-60
2021/08/03 07:40:29;;;;;;;3.53;1.02;;;27.60;77.60;;;;;;4203548;28;20243;-60
2021/08/03 07:42:30;;;;;;;1.83;1.05;;;27.50;77.60;;;;;;4204631;28;20101;-60
2021/08/03 07:44:31;;;;;;;2.60;1.20;;;27.10;78.00;;;;;;4201793;28;20066;-60
2021/08/03 07:46:34;;;;;;;4.95;1.38;;;27.20;78.20;;;;;;4204358;28;20082;-60
2021/08/03 07:48:35;;;;;;;6.00;1.38;;;27.20;78.60;;;;;;4203495;28;20105;-60
2021/08/03 07:50:37;;;;;;;5.38;1.00;;;27.50;78.60;;;;;;4222047;27;20871;-60
2021/08/03 07:52:38;;;;;;;4.90;1.30;;;27.50;78.10;;;;;;4219766;28;20031;-60
2021/08/03 07:54:39;;;;;;;2.75;1.15;;;27.70;78.40;;;;;;4220941;27;20056;-60
2021/08/03 07:56:40;;;;;;;5.55;1.27;;;27.80;78.20;;;;;;4222231;27;20040;-61
2021/08/03 07:58:43;;;;;;;2.25;0.93;;;27.50;78.30;;;;;;4224038;28;20035;-60
2021/08/03 08:00:44;;;;;;;3.95;1.20;;;27.20;78.40;;;;;;4220672;28;20112;-60
2021/08/03 08:02:45;;;;;;;3.10;1.10;;;26.80;78.80;;;;;;4221927;27;20422;-61
2021/08/03 08:04:46;;;;;;;2.85;0.93;;;26.50;79.30;;;;;;4220309;28;20052;-64
2021/08/03 08:06:47;;;;;;;6.35;1.10;;;26.20;80.40;;;;;;4212954;28;20418;-62
2021/08/03 08:08:48;;;;;;;2.45;1.10;;;26.10;80.80;;;;;;4206670;28;20032;-60
2021/08/03 08:10:49;;;;;;;3.70;1.10;;;25.90;80.70;;;;;;4223128;28;20620;-61
2021/08/03 08:12:51;;;;;;;1.35;1.23;;;25.90;80.90;;;;;;4231053;28;20036;-60
2021/08/03 08:14:52;;;;;;;4.35;1.00;;;26.10;81.20;;;;;;4222071;28;20069;-62
2021/08/03 08:16:53;;;;;;;2.63;1.38;;;26.40;80.80;;;;;;4222497;28;20044;-63
2021/08/03 08:18:54;;;;;;;4.32;0.90;;;26.30;80.70;;;;;;4221458;28;20084;-62
2021/08/03 08:20:55;;;;;;;5.22;1.27;;;26.10;80.70;;;;;;4222476;28;20484;-61
2021/08/03 08:22:56;;;;;;;3.40;1.17;;;26.10;80.70;;;;;;4221714;28;20101;-61
2021/08/03 08:24:57;;;;;;;1.10;0.85;;;26.30;80.90;;;;;;4231727;28;20475;-61
2021/08/03 08:26:58;;;;;;;3.38;1.30;;;26.20;80.90;;;;;;4234648;27;20039;-61
2021/08/03 08:28:59;;;;;;;3.67;1.17;;;26.40;80.70;;;;;;4225618;27;20048;-61
2021/08/03 08:31:01;;;;;;;1.67;0.70;;;26.20;80.50;;;;;;4238794;28;20611;-61
2021/08/03 08:33:03;;;;;;;0.85;0.85;;;25.90;80.70;;;;;;4236768;28;20120;-61
2021/08/03 08:35:05;;;;;;;1.10;1.00;;;26.00;81.00;;;;;;4222955;28;20095;-64
2021/08/03 08:37:06;;;;;;;4.03;1.10;;;26.20;81.30;;;;;;4221756;28;20472;-63
2021/08/03 08:39:08;;;;;;;3.25;1.35;;;26.50;81.10;;;;;;4221612;28;20096;-61
2021/08/03 08:41:12;;;;;;;3.17;1.02;;;26.80;80.50;;;;;;4221711;28;20476;-62
2021/08/03 08:43:15;;;;;;;2.15;0.98;;;27.10;80.00;;;;;;4225810;28;20848;-62
2021/08/03 08:45:17;;;;;;;2.17;1.10;;;27.30;78.90;;;;;;4221369;28;20065;-61
2021/08/03 08:47:18;;;;;;;2.53;1.40;;;27.20;78.80;;;;;;4222342;28;20107;-62
2021/08/03 08:49:20;;;;;;;2.65;1.33;;;27.10;78.90;;;;;;4221489;28;20092;-63
2021/08/03 08:51:21;;;;;;;7.80;3.28;;;26.90;78.60;;;;;;4222829;28;20517;-61
2021/08/03 08:53:26;;;;;;;22.52;6.95;;;26.80;79.30;;;;;;4224623;28;20512;-64
2021/08/03 08:55:27;;;;;;;14.57;4.50;;;26.90;79.80;;;;;;4230212;28;20107;-62
2021/08/03 08:57:28;;;;;;;9.25;3.75;;;27.10;79.50;;;;;;4223289;28;20020;-64
2021/08/03 08:59:31;;;;;;;10.20;3.65;;;27.40;79.40;;;;;;4221755;28;20031;-62
2021/08/03 09:01:32;;;;;;;7.45;2.92;;;27.60;78.70;;;;;;4219377;28;20040;-61
2021/08/03 09:03:33;;;;;;;4.22;2.25;;;27.70;78.90;;;;;;4222085;28;20441;-61
2021/08/03 09:05:39;;;;;;;9.82;2.63;;;27.90;78.30;;;;;;4232292;28;20531;-61
2021/08/03 09:07:57;;;;;;;5.32;1.50;;;28.00;78.70;;;;;;4238322;28;20794;-63
2021/08/03 09:10:00;;;;;;;1.73;1.30;;;28.20;78.40;;;;;;4238362;27;20047;-63
2021/08/03 09:12:02;;;;;;;2.88;1.17;;;28.40;78.10;;;;;;4238502;27;20139;-62
2021/08/03 09:14:03;;;;;;;5.07;1.63;;;28.40;77.40;;;;;;4238631;28;20027;-61
2021/08/03 09:16:05;;;;;;;2.50;1.00;;;28.50;77.40;;;;;;4238796;28;20048;-61
2021/08/03 09:18:12;;;;;;;5.30;1.50;;;28.40;77.10;;;;;;4238154;27;20039;-61
2021/08/03 09:20:14;;;;;;;1.58;0.73;;;28.50;76.70;;;;;;4238594;27;20031;-62
2021/08/03 09:22:29;;;;;;;3.25;1.40;;;28.40;76.20;;;;;;4241916;27;20082;-62
2021/08/03 09:24:30;;;;;;;3.33;1.23;;;28.20;75.50;;;;;;4240706;27;20405;-61
2021/08/03 09:26:49;;;;;;;1.13;0.93;;;28.10;76.60;;;;;;4241826;27;20085;-61
2021/08/03 09:29:03;;;;;;;5.30;1.13;;;28.10;74.40;;;;;;4240501;27;20483;-62
2021/08/03 09:31:04;;;;;;;2.53;0.90;;;27.90;76.10;;;;;;4208183;28;20479;-60
2021/08/03 09:33:06;;;;;;;7.28;1.42;;;28.00;77.00;;;;;;4227852;27;20035;-62
2021/08/03 09:35:13;;;;;;;3.47;0.95;;;27.80;76.30;;;;;;4239995;27;20056;-62
2021/08/03 09:37:14;;;;;;;2.25;1.02;;;27.30;76.30;;;;;;4224434;27;20043;-62
2021/08/03 09:39:41;;;;;;;8.55;1.67;;;27.10;77.40;;;;;;4223585;28;20020;-62
2021/08/03 09:41:49;;;;;;;4.30;1.23;;;27.10;77.40;;;;;;4207118;28;20078;-63
2021/08/03 09:43:51;;;;;;;2.50;1.27;;;27.20;76.70;;;;;;4207822;28;20028;-61
2021/08/03 09:45:52;;;;;;;1.35;1.25;;;27.00;77.50;;;;;;4207278;28;20368;-62
2021/08/03 09:48:08;;;;;;;2.90;1.30;;;26.80;77.90;;;;;;4214274;27;20092;-62
2021/08/03 09:50:11;;;;;;;4.97;1.75;;;26.40;78.40;;;;;;4224010;28;20491;-63
2021/08/03 09:52:14;;;;;;;2.63;1.10;;;26.20;78.80;;;;;;4223131;27;20035;-62
2021/08/03 09:54:18;;;;;;;2.00;1.58;;;26.10;78.90;;;;;;4223217;28;20097;-61
2021/08/03 09:56:40;;;;;;;2.40;0.93;;;26.00;78.90;;;;;;4224498;27;20228;-62
2021/08/03 09:58:50;;;;;;;2.15;1.20;;;26.00;79.00;;;;;;4223160;28;20059;-61
2021/08/03 10:00:51;;;;;;;;;;;25.90;79.00;;;;;;4226089;27;20100;-61
2021/08/03 10:02:53;;;;;;;5.10;1.15;;;25.80;79.40;;;;;;4224141;28;19907;-62
2021/08/03 10:04:55;;;;;;;3.17;1.05;;;25.80;79.90;;;;;;4225322;27;20031;-62
2021/08/03 10:06:57;;;;;;;5.28;1.27;;;25.70;79.70;;;;;;4223469;28;20492;-62
2021/08/03 10:09:00;;;;;;;1.20;1.15;;;25.60;80.10;;;;;;4223751;28;20036;-64
2021/08/03 10:11:02;;;;;;;4.10;1.42;;;25.70;80.20;;;;;;4226748;27;20012;-62
2021/08/03 10:13:06;;;;;;;2.50;1.20;;;25.60;80.20;;;;;;4223648;27;20116;-62
2021/08/03 10:15:10;;;;;;;3.67;1.02;;;25.70;79.70;;;;;;4223004;28;20040;-63
2021/08/03 10:17:15;;;;;;;2.33;1.00;;;25.80;79.40;;;;;;4207470;28;20041;-61
2021/08/03 10:19:33;;;;;;;2.95;1.60;;;25.90;79.20;;;;;;4205789;28;20036;-61
2021/08/03 10:21:47;;;;;;;3.05;0.80;;;26.00;78.60;;;;;;4206523;28;20047;-63
2021/08/03 10:23:48;;;;;;;2.70;1.10;;;25.90;77.80;;;;;;4206378;28;20379;-62
2021/08/03 10:25:50;;;;;;;5.00;4.35;;;25.90;78.40;;;;;;4206619;28;20121;-58
2021/08/03 10:27:52;;;;;;;4.45;1.15;;;26.10;78.70;;;;;;4220526;27;20076;-61
2021/08/03 10:29:57;;;;;;;1.35;1.02;;;26.40;78.70;;;;;;4229843;27;20559;-62
2021/08/03 10:31:58;;;;;;;0.88;0.80;;;26.80;78.10;;;;;;4223085;28;20555;-62
2021/08/03 10:33:59;;;;;;;2.22;0.80;;;26.70;76.70;;;;;;4222995;28;20089;-63
2021/08/03 10:36:00;;;;;;;1.77;0.88;;;26.50;76.70;;;;;;4223351;28;20062;-62
2021/08/03 10:38:01;;;;;;;1.08;0.98;;;26.30;76.60;;;;;;4222471;27;20040;-65
2021/08/03 10:40:03;;;;;;;2.03;0.85;;;26.40;76.40;;;;;;4223351;28;20039;-64
2021/08/03 10:42:04;;;;;;;1.85;0.93;;;26.40;76.40;;;;;;4223466;27;20032;-63
2021/08/03 10:44:25;;;;;;;2.78;0.93;;;26.30;76.30;;;;;;4228900;27;20031;-62